Flight Briefing for CMB822

Departure Arrival
Grantley Adams International Airport (TBPB)
Click to view FAA NOTAMS
Patrick Air Force Base (KCOF)
Click to view FAA NOTAMS
Departure Time Arrival Time
N/A N/A
Aircraft Distance
B757-200SF 1490nm
Departure METAR Arrival METAR
TBPB 221200Z 09017KT 9999 3000S SCT012 BKN034 25/22 Q1016 NOSIG KCOF 221156Z AUTO 29005KT 10SM CLR 13/09 A3005 RMK AO2 SLP180 T01250091 10152 20122 52014 $
Suggested Route
BGI UA555 ILURI A555 COY SJU RTE6 BEANO Y290 HAGIT Y352 ZQA A555 ZBV BR57V WIERS BR22V FLL LBV COSTR3


View recent IFR Routes data
Notes
USTRANSCOM CONTRACT FLIGHT

Charts and Procedures

Charts for TBPB
No chart available
Charts for KCOF
No chart available

Windy.com Weather Map